Flight Track Log - Related Links

Times and Time Zones

All times are in EDT time to prevent confusion due to time zone crossing. See the XOJ552 flight status page for this flight to view local times or setup timezone preferences in your user account.

Time Position Orientation Groundspeed Altitude Reporting Facility
EDT Latitude Longitude Course Direction KTS MPH feet Rate Location/Type
Fri 02:20:50 PM 58.6167 -156.4333 114° Southeast 250 288 5,800  Level Anchorage Center
Fri 02:21:50 PM 58.6000 -156.2833 102° East 290 334 9,700 3,650 Climbing Anchorage Center
Fri 02:22:50 PM 58.5667 -156.1333 113° Southeast 300 345 13,100 3,300 Climbing Anchorage Center
Fri 02:23:50 PM 58.5500 -155.9667 101° East 320 368 16,300 3,100 Climbing Anchorage Center
Fri 02:24:00 PM 58.4805 -155.5254 112° Southeast  Level FlightAware
Fri 02:24:50 PM 58.5167 -155.7833 109° East 340 391 19,300  Level Anchorage Center
Fri 02:25:00 PM 58.4334 -155.3003 112° Southeast  Level FlightAware
Fri 02:25:51 PM 58.4833 -155.6167 111° Southeast 360 414 22,000  Level Anchorage Center
Fri 02:26:00 PM 58.3815 -155.0795 114° Southeast  Level FlightAware
Fri 02:26:50 PM 58.4500 -155.4167 108° East 380 437 24,100  Level Anchorage Center
Fri 02:27:50 PM 58.4167 -155.2167 108° East 420 483 25,800 1,983 Climbing Anchorage Center
Fri 02:28:51 PM 58.3667 -155.0000 114° Southeast 430 495 28,100 2,132 Climbing Anchorage Center
Fri 02:29:51 PM 58.3167 -154.7833 114° Southeast 440 506 30,100 1,900 Climbing Anchorage Center
Fri 02:30:51 PM 58.2667 -154.5667 114° Southeast 450 518 31,900 1,600 Climbing Anchorage Center
Fri 02:31:51 PM 58.2167 -154.3333 112° Southeast 460 529 33,300 1,200 Climbing Anchorage Center
Fri 02:32:51 PM 58.1667 -154.1000 112° Southeast 480 552 34,300 1,150 Climbing Anchorage Center
Fri 02:33:51 PM 58.1167 -153.8667 112° Southeast 490 564 35,600 1,100 Climbing Anchorage Center
Fri 02:34:51 PM 58.0667 -153.6167 111° Southeast 500 575 36,500 1,200 Climbing Anchorage Center
Fri 02:35:51 PM 58.0000 -153.3667 117° Southeast 500 575 38,000 1,250 Climbing Anchorage Center
Fri 02:36:51 PM 57.9500 -153.1333 112° Southeast 500 575 39,000 1,000 Climbing Anchorage Center
Fri 02:37:51 PM 57.9000 -152.8833 111° Southeast 500 575 40,000 1,000 Climbing Anchorage Center
Fri 02:38:51 PM 57.8333 -152.6500 118° Southeast 490 564 41,000 500 Climbing Anchorage Center
Fri 02:39:51 PM 57.7833 -152.4167 112° Southeast 500 575 41,000  Level Anchorage Center
Fri 02:40:52 PM 57.7333 -152.1667 110° East 500 575 41,000  Level Anchorage Center
Fri 02:41:51 PM 57.7000 -151.9000 103° East 510 587 41,000  Level Anchorage Center
Fri 02:42:51 PM 57.6500 -151.6500 110° East 520 598 41,000  Level Anchorage Center
Fri 02:43:52 PM 57.6000 -151.3833 109° East 520 598 41,000  Level Anchorage Center
Fri 02:44:52 PM 57.5667 -151.1000 102° East 530 610 41,000  Level Anchorage Center
Fri 02:45:52 PM 57.5167 -150.8500 110° East 520 598 41,000  Level Anchorage Center
Fri 02:47:52 PM 57.4167 -150.3333 110° East 520 598 41,000  Level Anchorage Center
Fri 02:48:52 PM 57.3833 -150.0667 103° East 520 598 41,000  Level Anchorage Center
Fri 02:49:52 PM 57.3333 -149.8167 110° East 510 587 41,000  Level Anchorage Center
Fri 02:50:53 PM 57.3000 -149.5667 104° East 520 598 41,000  Level Anchorage Center
Fri 02:51:52 PM 57.2500 -149.3000 109° East 510 587 41,000  Level Anchorage Center
Fri 02:52:53 PM 57.2000 -149.0500 110° East 520 598 41,000  Level Anchorage Center
Fri 02:53:53 PM 57.1667 -148.8000 104° East 520 598 41,000  Level Anchorage Center
Fri 02:54:52 PM 57.1167 -148.5500 110° East 510 587 41,000  Level Anchorage Center
Fri 02:55:53 PM 57.0667 -148.3000 110° East 520 598 41,000  Level Anchorage Center
Fri 02:56:53 PM 57.0167 -148.0500 110° East 510 587 41,000  Level Anchorage Center
Fri 02:57:53 PM 56.9833 -147.8000 104° East 510 587 41,000  Level Anchorage Center
Fri 02:58:53 PM 56.9333 -147.5500 110° East 520 598 41,000  Level Anchorage Center
Fri 02:59:53 PM 56.8833 -147.3000 110° East 520 598 41,000  Level Anchorage Center
Fri 03:00:54 PM 56.8333 -147.0333 109° East 520 598 41,000  Level Anchorage Center
Fri 03:01:53 PM 56.7833 -146.7833 110° East 520 598 41,000  Level Anchorage Center
Fri 03:02:53 PM 56.7333 -146.5333 110° East 520 598 41,000  Level Anchorage Center
Fri 03:03:54 PM 56.6833 -146.2833 110° East 520 598 41,000  Level Anchorage Center
Fri 03:04:54 PM 56.6333 -146.0500 111° Southeast 520 598 41,000  Level Anchorage Center
Fri 03:05:54 PM 56.5833 -145.8000 110° East 510 587 41,000  Level Anchorage Center
Fri 03:06:54 PM 56.5333 -145.5667 111° Southeast 510 587 41,000  Level Anchorage Center
Fri 03:07:54 PM 56.4833 -145.3167 110° East 510 587 41,000  Level Anchorage Center
Fri 03:08:54 PM 56.4333 -145.1167 114° Southeast 510 587 41,000  Level Anchorage Center
Fri 03:09:54 PM 56.3667 -144.8333 113° Southeast 510 587 41,000  Level Anchorage Center
Fri 03:10:54 PM 56.3167 -144.6167 113° Southeast 500 575 41,000  Level Anchorage Center
Fri 03:11:54 PM 56.2667 -144.3667 110° East 500 575 41,000  Level Anchorage Center
Fri 03:12:54 PM 56.2167 -144.1167 110° East 510 587 41,000  Level Anchorage Center
Fri 03:13:54 PM 56.1667 -143.9000 112° Southeast 500 575 41,000  Level Anchorage Center
Fri 03:14:55 PM 56.1167 -143.6667 111° Southeast 500 575 41,000  Level Anchorage Center
Fri 03:15:55 PM 56.0500 -143.4500 119° Southeast 490 564 41,000  Level Anchorage Center
Fri 03:16:55 PM 56.0000 -143.2167 111° Southeast 490 564 41,000  Level Anchorage Center
Fri 03:17:54 PM 55.9500 -143.0000 112° Southeast 490 564 41,000  Level Anchorage Center
Fri 03:18:55 PM 55.9000 -142.7667 111° Southeast 480 552 41,000  Level Anchorage Center
Fri 03:19:55 PM 55.8500 -142.5333 111° Southeast 490 564 41,000  Level Anchorage Center
Fri 03:20:55 PM 55.7833 -142.3167 119° Southeast 480 552 41,000  Level Anchorage Center
Fri 03:21:55 PM 55.7333 -142.1167 114° Southeast 470 541 41,000  Level Anchorage Center
Fri 03:22:55 PM 55.6833 -141.9167 114° Southeast 470 541 41,000  Level Anchorage Center
Fri 03:23:55 PM 55.6333 -141.7000 112° Southeast 460 529 41,000  Level Anchorage Center
Fri 03:24:55 PM 55.5833 -141.4833 112° Southeast 470 541 41,000  Level Anchorage Center
Fri 03:25:56 PM 55.5333 -141.2833 114° Southeast 460 529 41,000  Level Anchorage Center
Fri 03:26:55 PM 55.4667 -141.0667 118° Southeast 490 564 41,000  Level Anchorage Center
Fri 03:27:56 PM 55.4167 -140.8500 112° Southeast 470 541 41,000  Level Anchorage Center
Fri 03:28:56 PM 55.3667 -140.6500 114° Southeast 470 541 41,000  Level Anchorage Center
Fri 03:29:56 PM 55.3000 -140.4333 118° Southeast 470 541 41,000  Level Anchorage Center
Fri 03:30:56 PM 55.2500 -140.2167 112° Southeast 480 552 41,000  Level Anchorage Center
Fri 03:31:56 PM 55.1833 -140.0000 118° Southeast 470 541 41,000  Level Anchorage Center
Fri 03:32:56 PM 55.1333 -139.8000 114° Southeast 480 552 41,000  Level Anchorage Center
Fri 03:33:56 PM 55.0667 -139.5833 118° Southeast 470 541 41,000  Level Anchorage Center
Fri 03:34:56 PM 55.0167 -139.3833 113° Southeast 480 552 41,000  Level Anchorage Center
Fri 03:35:57 PM 54.9500 -139.1667 118° Southeast 480 552 41,000  Level Anchorage Center
Fri 03:36:56 PM 54.9000 -138.9667 113° Southeast 470 541 41,000  Level Anchorage Center
Fri 03:37:56 PM 54.8333 -138.7500 118° Southeast 480 552 41,000  Level Anchorage Center
Fri 03:38:56 PM 54.7833 -138.5500 113° Southeast 470 541 41,000  Level Anchorage Center
Fri 03:39:57 PM 54.7167 -138.3500 120° Southeast 480 552 41,000  Level Anchorage Center
Fri 03:40:56 PM 54.6500 -138.1333 118° Southeast 480 552 41,000  Level Anchorage Center
Fri 03:41:57 PM 54.6000 -137.9333 113° Southeast 470 541 41,000  Level Anchorage Center
Fri 03:42:56 PM 54.5333 -137.7333 120° Southeast 480 552 41,000  Level Anchorage Center
Fri 03:43:57 PM 54.4667 -137.5333 120° Southeast 480 552 41,000  Level Anchorage Center
Fri 03:44:57 PM 54.4167 -137.3333 113° Southeast 480 552 41,000  Level Anchorage Center
Fri 03:45:57 PM 54.3500 -137.1167 118° Southeast 480 552 41,000  Level Anchorage Center
Fri 03:46:57 PM 54.2833 -136.9167 120° Southeast 480 552 41,000  Level Anchorage Center
Fri 03:47:57 PM 54.2167 -136.7167 120° Southeast 480 552 41,000  Level Anchorage Center
Fri 03:48:57 PM 54.1500 -136.5167 120° Southeast 490 564 41,000 100 Level Anchorage Center
Fri 03:49:57 PM 54.0833 -136.3000 118° Southeast 490 564 41,200 347 Climbing Anchorage Center
Fri 03:50:58 PM 54.0167 -136.1000 120° Southeast 480 552 41,700 500 Climbing Anchorage Center
Fri 03:51:57 PM 53.9333 -135.9333 130° Southeast 460 529 42,200 514 Climbing Anchorage Center
Fri 03:53:18 PM 53.7833 -135.8333 158° South 470 541 42,900 511 Climbing Vancouver Center
Fri 03:54:18 PM 53.6833 -135.7000 142° Southeast 460 529 43,400 500 Climbing Vancouver Center
Fri 03:55:18 PM 53.5833 -135.5833 145° Southeast 450 518 43,900 400 Climbing Vancouver Center
Fri 03:56:18 PM 53.4667 -135.4667 149° Southeast 450 518 44,200 250 Climbing Vancouver Center
Fri 03:57:18 PM 53.3667 -135.3333 141° Southeast 450 518 44,400 200 Climbing Vancouver Center
Fri 03:58:18 PM 53.2833 -135.2167 140° Southeast 450 518 44,600 200 Climbing Vancouver Center
Fri 03:59:18 PM 53.1667 -135.1000 149° Southeast 440 506 44,800 200 Climbing Vancouver Center
Fri 04:00:18 PM 53.0833 -135.0000 144° Southeast 440 506 45,000 100 Climbing Vancouver Center
Fri 04:01:18 PM 52.9667 -134.8667 145° Southeast 440 506 45,000  Level Vancouver Center
Fri 04:02:18 PM 52.8667 -134.7500 145° Southeast 450 518 45,000  Level Vancouver Center
Fri 04:03:18 PM 52.7500 -134.6333 149° Southeast 450 518 45,000  Level Vancouver Center
Fri 04:04:18 PM 52.6667 -134.5000 136° Southeast 450 518 45,000  Level Vancouver Center
Fri 04:05:18 PM 52.5667 -134.4000 149° Southeast 450 518 45,000  Level Vancouver Center
Fri 04:06:18 PM 52.4500 -134.2833 149° Southeast 460 529 45,000  Level Vancouver Center
Fri 04:07:18 PM 52.3500 -134.1833 149° Southeast 460 529 45,000  Level Vancouver Center
Fri 04:08:18 PM 52.2333 -134.0500 145° Southeast 460 529 45,000  Level Vancouver Center
Fri 04:09:18 PM 52.1500 -133.9333 139° Southeast 460 529 45,000  Level Vancouver Center
Fri 04:10:18 PM 52.0167 -133.8000 148° Southeast 460 529 45,000  Level Vancouver Center
Fri 04:11:18 PM 51.9333 -133.7000 143° Southeast 460 529 45,000  Level Vancouver Center
Fri 04:12:18 PM 51.8167 -133.6000 152° Southeast 450 518 45,000  Level Vancouver Center
Fri 04:13:18 PM 51.7167 -133.4667 140° Southeast 460 529 45,000  Level Vancouver Center
Fri 04:14:18 PM 51.6000 -133.3667 152° Southeast 460 529 45,000  Level Vancouver Center
Fri 04:15:18 PM 51.5000 -133.2500 144° Southeast 460 529 45,000  Level Vancouver Center
Fri 04:16:18 PM 51.4000 -133.1500 148° Southeast 460 529 45,000  Level Vancouver Center
Fri 04:17:18 PM 51.3000 -133.0333 144° Southeast 450 518 45,000  Level Vancouver Center
Fri 04:18:18 PM 51.1833 -132.9167 148° Southeast 450 518 45,000  Level Vancouver Center
Fri 04:19:18 PM 51.0833 -132.8167 148° Southeast 450 518 45,000  Level Vancouver Center
Fri 04:20:18 PM 50.9667 -132.7000 148° Southeast 460 529 45,000  Level Vancouver Center
Fri 04:21:17 PM 50.8667 -132.6000 148° Southeast 450 518 45,000  Level Vancouver Center
Fri 04:22:17 PM 50.7667 -132.5000 148° Southeast 450 518 45,000  Level Vancouver Center
Fri 04:23:17 PM 50.6667 -132.4000 148° Southeast 450 518 45,000  Level Vancouver Center
Fri 04:24:17 PM 50.5500 -132.2667 144° Southeast 450 518 45,000  Level Vancouver Center
Fri 04:25:17 PM 50.4500 -132.1833 152° Southeast 450 518 45,000  Level Vancouver Center
Fri 04:26:17 PM 50.3500 -132.0833 147° Southeast 450 518 45,000  Level Vancouver Center
Fri 04:27:17 PM 50.2333 -131.9833 151° Southeast 450 518 45,000  Level Vancouver Center
Fri 04:28:17 PM 50.1333 -131.8500 139° Southeast 450 518 45,000  Level Vancouver Center
Fri 04:29:17 PM 50.0167 -131.7667 155° Southeast 450 518 45,000  Level Vancouver Center
Fri 04:30:17 PM 49.9000 -131.6667 151° Southeast 450 518 45,000  Level Vancouver Center
Fri 04:31:17 PM 49.8167 -131.5667 142° Southeast 450 518 45,000  Level Vancouver Center
Fri 04:32:17 PM 49.7000 -131.5000 160° South 450 518 45,000  Level Vancouver Center
Fri 04:33:17 PM 49.5833 -131.3833 147° Southeast 450 518 45,000  Level Vancouver Center
Fri 04:34:17 PM 49.4833 -131.3167 157° South 450 518 45,000  Level Vancouver Center
Fri 04:35:17 PM 49.3667 -131.1833 143° Southeast 450 518 45,000  Level Vancouver Center
Fri 04:36:17 PM 49.2667 -131.1000 151° Southeast 450 518 45,000  Level Vancouver Center
Fri 04:37:17 PM 49.1500 -131.0000 151° Southeast 450 518 45,000  Level Vancouver Center
Fri 04:38:17 PM 49.0500 -130.9167 151° Southeast 450 518 45,000  Level Vancouver Center
Fri 04:39:17 PM 48.9333 -130.8167 151° Southeast 450 518 45,000  Level Vancouver Center
Fri 04:40:17 PM 48.8333 -130.7333 151° Southeast 450 518 45,000  Level Vancouver Center
Fri 04:41:17 PM 48.7167 -130.6333 151° Southeast 440 506 45,000  Level Vancouver Center
Fri 04:42:17 PM 48.6000 -130.5500 155° Southeast 450 518 45,000  Level Vancouver Center
Fri 04:43:17 PM 48.5167 -130.4833 152° Southeast 440 506 45,000  Level Vancouver Center
Fri 04:44:17 PM 48.4000 -130.3667 146° Southeast 440 506 45,000  Level Vancouver Center
Fri 04:45:17 PM 48.2833 -130.3000 159° South 450 518 45,000  Level Vancouver Center
Fri 04:46:17 PM 48.1667 -130.1833 146° Southeast 450 518 45,000  Level Vancouver Center
Fri 04:47:17 PM 48.0667 -130.1000 151° Southeast 450 518 45,000  Level Vancouver Center
Fri 04:48:17 PM 47.9500 -130.0000 150° Southeast 450 518 45,000  Level Vancouver Center
Fri 04:49:17 PM 47.8500 -129.9167 151° Southeast 450 518 45,000  Level Vancouver Center
Fri 04:50:17 PM 47.7333 -129.8333 154° Southeast 450 518 45,000  Level Vancouver Center
Fri 04:51:17 PM 47.6333 -129.7500 151° Southeast 460 529 45,000  Level Vancouver Center
Fri 04:52:17 PM 47.5167 -129.6500 150° Southeast 450 518 45,000  Level Vancouver Center
Fri 04:53:17 PM 47.4000 -129.5667 154° Southeast 450 518 45,000  Level Vancouver Center
Fri 04:54:17 PM 47.3000 -129.4833 151° Southeast 450 518 45,000  Level Vancouver Center
Fri 04:55:17 PM 47.1833 -129.4000 154° Southeast 450 518 45,000  Level Vancouver Center
Fri 04:56:17 PM 47.0667 -129.3167 154° Southeast 460 529 45,000  Level Vancouver Center
Fri 04:57:17 PM 46.9500 -129.2333 154° Southeast 450 518 45,000  Level Vancouver Center
Fri 04:58:17 PM 46.8667 -129.1500 146° Southeast 450 518 45,000  Level Vancouver Center
Fri 04:59:17 PM 46.7500 -129.0667 154° Southeast 450 518 45,000  Level Vancouver Center
Fri 05:00:17 PM 46.6333 -128.9667 150° Southeast 470 541 45,000  Level Vancouver Center
Fri 05:01:17 PM 46.5167 -128.8833 154° Southeast 460 529 45,000  Level Vancouver Center
Fri 05:02:17 PM 46.4000 -128.8000 154° Southeast 460 529 45,000  Level Vancouver Center
Fri 05:03:17 PM 46.3000 -128.7167 150° Southeast 460 529 45,000  Level Vancouver Center
Fri 05:04:17 PM 46.1833 -128.6333 154° Southeast 460 529 45,000  Level Vancouver Center
Fri 05:04:31 PM 47.7000 -129.7667 152° Southeast 453 521 45,000  Level Oakland Oceanic
Fri 05:05:17 PM 46.0667 -128.5333 152° Southeast 460 529 45,000  Level Vancouver Center
Fri 05:06:17 PM 45.9500 -128.4833 163° South 460 529 45,000  Level Vancouver Center
Fri 05:07:17 PM 45.8500 -128.3667 141° Southeast 460 529 45,000  Level Vancouver Center
Fri 05:08:17 PM 45.7333 -128.2833 153° Southeast 460 529 45,000  Level Vancouver Center
Fri 05:09:17 PM 45.6167 -128.2000 153° Southeast 460 529 45,000  Level Vancouver Center
Fri 05:10:17 PM 45.5000 -128.1333 158° South 460 529 45,000  Level Vancouver Center
Fri 05:11:17 PM 45.3833 -128.0500 153° Southeast 460 529 45,000  Level Vancouver Center
Fri 05:12:17 PM 45.2833 -127.9667 150° Southeast 460 529 45,000  Level Vancouver Center
Fri 05:13:17 PM 45.1667 -127.8833 153° Southeast 460 529 45,000  Level Vancouver Center
Fri 05:14:17 PM 45.0500 -127.8167 158° South 460 529 45,000  Level Vancouver Center
Fri 05:15:17 PM 44.9333 -127.7000 145° Southeast 460 529 45,000  Level Vancouver Center
Fri 05:16:17 PM 44.8167 -127.6333 158° South 460 529 45,000  Level Vancouver Center
Fri 05:17:17 PM 44.7000 -127.5500 153° Southeast 460 529 45,000  Level Vancouver Center
Fri 05:19:00 PM 44.5071 -127.4109 153° Southeast  Level FlightAware
Fri 05:23:28 PM 44.0064 -127.0486 153° Southeast 459 528 45,000  Level Seattle Center
Fri 05:24:29 PM 43.8908 -126.9694 154° Southeast 460 529 45,000  Level Seattle Center
Fri 05:25:30 PM 43.7767 -126.8911 154° Southeast 461 531 45,000  Level Seattle Center
Fri 05:26:00 PM 43.7188 -126.8531 153° Southeast  Level FlightAware
Fri 05:26:31 PM 43.6639 -126.8153 154° Southeast 456 525 45,000  Level Seattle Center
Fri 05:27:00 PM 43.6060 -126.7746 153° Southeast  Level FlightAware
Fri 05:27:32 PM 43.5511 -126.7400 154° Southeast 453 521 45,000  Level Seattle Center
Fri 05:28:00 PM 43.4931 -126.6964 153° Southeast  Level FlightAware
Fri 05:28:33 PM 43.4372 -126.6614 153° Southeast 456 525 45,000  Level Seattle Center
Fri 05:29:34 PM 43.3247 -126.5872 154° Southeast 452 520 45,000  Level Seattle Center
Fri 05:30:36 PM 43.1914 -126.4975 154° Southeast 449 517 45,000  Level Seattle Center
Fri 05:31:37 PM 43.0769 -126.4206 154° Southeast 452 520 45,000  Level Seattle Center
Fri 05:32:38 PM 42.9631 -126.3442 154° Southeast 454 522 45,000 -49 Level Seattle Center
Fri 05:33:39 PM 42.8511 -126.2542 149° Southeast 463 533 44,900  Descending Seattle Center
Fri 05:34:40 PM 42.7381 -126.1417 144° Southeast 463 533 45,000  Climbing Seattle Center
Fri 05:35:41 PM 42.6339 -126.0381 144° Southeast 465 535 44,900  Descending Seattle Center
Fri 05:36:42 PM 42.5294 -125.9361 144° Southeast 463 533 45,000 49 Climbing Seattle Center
Fri 05:37:43 PM 42.4261 -125.8328 144° Southeast 462 532 45,000  Level Seattle Center
Fri 05:38:45 PM 42.3225 -125.7297 144° Southeast 463 533 45,000  Level Seattle Center
Fri 05:39:46 PM 42.2192 -125.6278 144° Southeast 461 531 45,000  Level Seattle Center
Fri 05:40:47 PM 42.1150 -125.5261 144° Southeast 462 532 45,000  Level Seattle Center
Fri 05:41:48 PM 42.0114 -125.4253 144° Southeast 461 531 45,000  Level Seattle Center
Fri 05:42:49 PM 41.9081 -125.3239 144° Southeast 462 532 45,000  Level Seattle Center
Fri 05:43:50 PM 41.8044 -125.2228 144° Southeast 460 529 45,000  Level Seattle Center
Fri 05:44:52 PM 41.7003 -125.1231 144° Southeast 461 531 45,000  Level Seattle Center
Fri 05:45:53 PM 41.5764 -125.0036 144° Southeast 458 527 45,000  Level Seattle Center
Fri 05:46:54 PM 41.4739 -124.9039 144° Southeast 457 526 45,000  Level Seattle Center
Fri 05:47:55 PM 41.3706 -124.8053 144° Southeast 456 525 45,000  Level Seattle Center
Fri 05:48:56 PM 41.2675 -124.7067 144° Southeast 455 524 45,000  Level Seattle Center
Fri 05:49:58 PM 41.1628 -124.6089 145° Southeast 460 529 45,000  Level Seattle Center
Fri 05:50:59 PM 41.0586 -124.5111 145° Southeast 459 528 45,000  Level Seattle Center
Fri 05:52:00 PM 40.9550 -124.4136 145° Southeast 457 526 45,000  Level Seattle Center
Fri 05:53:01 PM 40.8519 -124.3161 144° Southeast 457 526 45,000  Level Seattle Center
Fri 05:54:02 PM 40.7467 -124.2192 145° Southeast 458 527 45,000  Level Seattle Center
Fri 05:55:03 PM 40.6425 -124.1217 145° Southeast 458 527 45,000  Level Seattle Center
Fri 05:56:05 PM 40.5222 -124.0103 145° Southeast 458 527 45,000  Level Seattle Center
Fri 05:57:06 PM 40.4172 -123.9142 145° Southeast 461 531 45,000  Level Seattle Center
Fri 05:58:01 PM 40.3222 -123.8286 146° Southeast 461 531 45,000  Level Oakland Center
Fri 05:59:02 PM 40.2167 -123.7322 145° Southeast 461 531 45,000 -49 Level Oakland Center
Fri 06:00:04 PM 40.1108 -123.6364 145° Southeast 462 532 44,900  Descending Oakland Center
Fri 06:01:06 PM 40.0058 -123.5406 145° Southeast 461 531 45,000 49 Climbing Oakland Center
Fri 06:02:07 PM 39.9011 -123.4461 145° Southeast 459 528 45,000  Level Oakland Center
Fri 06:03:09 PM 39.7939 -123.3514 146° Southeast 463 533 45,000  Level Oakland Center
Fri 06:04:11 PM 39.6678 -123.2364 145° Southeast 462 532 45,000  Level Oakland Center
Fri 06:05:13 PM 39.5544 -123.1364 146° Southeast 466 536 45,000  Level Oakland Center
Fri 06:06:14 PM 39.4475 -123.0411 145° Southeast 461 531 45,000  Level Oakland Center
Fri 06:07:16 PM 39.3431 -122.9469 145° Southeast 459 528 45,000  Level Oakland Center
Fri 06:08:18 PM 39.2397 -122.8583 146° Southeast 460 529 45,000  Level Oakland Center
Fri 06:09:19 PM 39.1211 -122.7539 146° Southeast 464 534 45,000  Level Oakland Center
Fri 06:10:21 PM 39.0158 -122.6608 146° Southeast 461 531 45,000  Level Oakland Center
Fri 06:11:23 PM 38.9183 -122.5758 146° Southeast 459 528 45,000  Level Oakland Center
Fri 06:12:25 PM 38.8036 -122.4756 146° Southeast 463 533 45,000  Level Oakland Center
Fri 06:13:26 PM 38.6975 -122.3833 146° Southeast 463 533 45,000  Level Oakland Center
Fri 06:14:28 PM 38.5769 -122.2783 146° Southeast 461 531 45,000  Level Oakland Center
Fri 06:15:30 PM 38.4692 -122.1872 146° Southeast 462 532 45,000  Level Oakland Center
Fri 06:16:32 PM 38.3625 -122.0950 146° Southeast 461 531 45,000  Level Oakland Center
Fri 06:17:33 PM 38.2550 -122.0025 146° Southeast 463 533 45,000  Level Oakland Center
Fri 06:18:35 PM 38.1475 -121.9122 147° Southeast 462 532 45,000  Level Oakland Center
Fri 06:19:36 PM 38.0403 -121.8203 146° Southeast 463 533 45,000  Level Oakland Center
Fri 06:20:38 PM 37.9322 -121.7297 147° Southeast 463 533 45,000  Level Oakland Center
Fri 06:21:40 PM 37.8244 -121.6392 146° Southeast 462 532 45,000  Level Oakland Center
Fri 06:22:41 PM 37.7167 -121.5503 147° Southeast 462 532 45,000  Level Oakland Center
Fri 06:23:43 PM 37.5897 -121.4444 147° Southeast 457 526 45,000  Level Oakland Center
Fri 06:24:44 PM 37.4831 -121.3556 147° Southeast 457 526 45,000  Level Oakland Center
Fri 06:25:46 PM 37.3772 -121.2678 147° Southeast 457 526 45,000  Level Oakland Center
Fri 06:26:48 PM 37.2756 -121.1844 147° Southeast 454 522 45,000  Level Oakland Center
Fri 06:27:49 PM 37.1700 -121.0989 147° Southeast 453 521 45,000  Level Oakland Center
Fri 06:28:51 PM 37.0650 -121.0119 147° Southeast 454 522 45,000  Level Oakland Center
Fri 06:29:52 PM 36.9386 -120.9097 147° Southeast 452 520 45,000  Level Oakland Center
Fri 06:30:54 PM 36.8322 -120.8225 147° Southeast 456 525 45,000  Level Oakland Center
Fri 06:31:55 PM 36.7231 -120.7339 147° Southeast 455 524 45,000  Level Oakland Center
Fri 06:32:57 PM 36.6172 -120.6486 147° Southeast 452 520 45,000  Level Oakland Center
Fri 06:33:59 PM 36.5117 -120.5628 147° Southeast 453 521 45,000  Level Oakland Center
Fri 06:35:00 PM 36.4061 -120.4767 147° Southeast 453 521 45,000  Level Oakland Center
Fri 06:36:02 PM 36.2997 -120.3939 148° Southeast 452 520 45,000  Level Oakland Center
Fri 06:37:03 PM 36.1936 -120.3083 147° Southeast 453 521 45,000  Level Oakland Center
Fri 06:38:05 PM 36.0881 -120.2225 147° Southeast 454 522 45,000  Level Oakland Center
Fri 06:39:07 PM 35.9822 -120.1386 147° Southeast 453 521 45,000  Level Oakland Center
Fri 06:40:08 PM 35.8533 -120.0361 147° Southeast 455 524 45,000  Level Oakland Center
Fri 06:41:10 PM 35.7467 -119.9519 147° Southeast 452 520 45,000 -49 Level Oakland Center
Fri 06:42:11 PM 35.6378 -119.8667 148° Southeast 459 528 44,900  Descending Oakland Center
Fri 06:42:54 PM 35.5731 -119.8156 147° Southeast 456 525 45,000 57 Climbing Los Center
Fri 06:43:56 PM 35.4633 -119.7289 147° Southeast 463 533 45,000 -484 Level Los Center
Fri 06:44:58 PM 35.3314 -119.6264 148° Southeast 464 534 44,000 -1,210 Descending Los Center
Fri 06:46:00 PM 35.2231 -119.5419 148° Southeast 462 532 42,500 -1,728 Descending Los Center
Fri 06:47:03 PM 35.1200 -119.4628 148° Southeast 444 511 40,400 -2,160 Descending Los Center
Fri 06:48:05 PM 35.0172 -119.3839 148° Southeast 437 503 38,000 -2,274 Descending Los Center
Fri 06:49:07 PM 34.9147 -119.3053 148° Southeast 435 501 35,700 -2,029 Descending Los Center
Fri 06:50:21 PM 34.8128 -119.2258 147° Southeast 435 501 33,400 -2,426 Descending Los Center
Fri 06:51:23 PM 34.6692 -119.1172 148° Southeast 456 525 30,200 -2,640 Descending Los Center
Fri 06:52:26 PM 34.5647 -119.0425 149° Southeast 463 533 27,900 -2,496 Descending Los Center
Fri 06:53:28 PM 34.4367 -118.9428 147° Southeast 457 526 25,000 -2,516 Descending Los Center
Fri 06:54:30 PM 34.3281 -118.8769 153° Southeast 435 501 22,700 -1,935 Descending Los Center
Fri 06:55:32 PM 34.2169 -118.8322 162° South 420 483 21,000 -1,676 Descending Los Center
Fri 06:56:46 PM 34.1172 -118.7942 162° South 380 437 18,900 -2,234 Descending Los Center
Fri 06:57:49 PM 33.9814 -118.7444 163° South 387 445 15,900 -2,304 Descending Los Center
Fri 06:58:51 PM 33.8700 -118.7047 164° South 387 445 14,100 -919 Descending Los Center
Fri 06:59:53 PM 33.7719 -118.6692 163° South 376 433 14,000 -919 Descending Los Center
Fri 07:00:55 PM 33.6786 -118.6358 163° South 356 410 12,200 -1,839 Descending Los Center
Fri 07:01:57 PM 33.6144 -118.5647 137° Southeast 330 380 10,200 -1,790 Descending Los Center
Fri 07:02:59 PM 33.5617 -118.4861 129° Southeast 310 357 8,500 -1,790 Descending Los Center
Fri 07:04:01 PM 33.5417 -118.3839 103° East 300 345 6,500 -1,645 Descending Los Center
Fri 07:05:03 PM 33.5581 -118.2931 78° East 289 333 5,100 -726 Descending Los Center
Fri 07:06:05 PM 33.5717 -118.2072 79° East 277 319 5,000 -48 Descending Los Center
Fri 07:07:07 PM 33.5853 -118.1197 79° East 271 312 5,000 -48 Level Los Center
Fri 07:08:10 PM 33.6244 -118.0328 62° Northeast 270 311 4,900  Descending Los Center
Fri 07:09:12 PM 33.6803 -117.9944 30° Northeast 238 274 5,000  Climbing Los Center
Fri 07:10:14 PM 33.7353 -117.9561 30° Northeast 232 267 4,900 -290 Descending Los Center
Fri 07:11:16 PM 33.7839 -117.9147 35° Northeast 220 253 4,400 -581 Descending Los Center
Fri 07:12:18 PM 33.8219 -117.8628 49° Northeast 212 244 3,700 -823 Descending Los Center
Fri 07:13:20 PM 33.8025 -117.8081 113° Southeast 181 208 2,700 -876 Descending Los Center
Fri 07:14:35 PM 33.7500 -117.8167 188° South 161 185 1,700 -800 Descending Southern TRACON
Fri 07:15:35 PM 33.7167 -117.8500 220° Southwest 123 142 900 -700 Descending Southern TRACON
Fri 07:16:35 PM 33.6833 -117.8667 203° Southwest 119 137 300 -600 Descending Southern TRACON
Fri 07:18:00 PM 33.6757 -117.8682 185° South  Level Estimated

Login

Don't have an account? Register now (free) for customized features, flight alerts, and more!